sensor_id;sensor_type;location;lat;lon;timestamp;P1;durP1;ratioP1;P2;durP2;ratioP2
6203;SDS011;3135;42.602;23.468;2022-09-09T00:00:17;6.63;;;5.00;;
6203;SDS011;3135;42.602;23.468;2022-09-09T00:02:45;6.72;;;4.82;;
6203;SDS011;3135;42.602;23.468;2022-09-09T00:05:20;5.65;;;5.13;;
6203;SDS011;3135;42.602;23.468;2022-09-09T00:07:54;6.05;;;4.68;;
6203;SDS011;3135;42.602;23.468;2022-09-09T00:10:37;7.53;;;5.00;;
6203;SDS011;3135;42.602;23.468;2022-09-09T00:16:03;7.07;;;5.32;;
6203;SDS011;3135;42.602;23.468;2022-09-09T00:18:53;8.50;;;4.95;;
6203;SDS011;3135;42.602;23.468;2022-09-09T00:24:32;8.55;;;5.38;;
6203;SDS011;3135;42.602;23.468;2022-09-09T00:30:17;7.05;;;5.18;;
6203;SDS011;3135;42.602;23.468;2022-09-09T00:32:54;5.15;;;4.60;;
6203;SDS011;3135;42.602;23.468;2022-09-09T00:35:32;5.70;;;4.90;;
6203;SDS011;3135;42.602;23.468;2022-09-09T00:38:03;6.28;;;5.13;;
6203;SDS011;3135;42.602;23.468;2022-09-09T00:40:53;6.57;;;5.43;;
6203;SDS011;3135;42.602;23.468;2022-09-09T00:43:42;6.07;;;4.80;;
6203;SDS011;3135;42.602;23.468;2022-09-09T00:54:54;7.95;;;5.03;;
6203;SDS011;3135;42.602;23.468;2022-09-09T00:57:23;6.90;;;4.82;;
6203;SDS011;3135;42.602;23.468;2022-09-09T01:06:40;7.75;;;4.72;;
6203;SDS011;3135;42.602;23.468;2022-09-09T01:11:22;8.05;;;4.63;;
6203;SDS011;3135;42.602;23.468;2022-09-09T01:14:10;6.78;;;4.80;;
6203;SDS011;3135;42.602;23.468;2022-09-09T01:16:37;5.53;;;4.60;;
6203;SDS011;3135;42.602;23.468;2022-09-09T01:19:03;6.07;;;4.78;;
6203;SDS011;3135;42.602;23.468;2022-09-09T01:21:38;10.65;;;5.20;;
6203;SDS011;3135;42.602;23.468;2022-09-09T01:26:52;7.70;;;4.85;;
6203;SDS011;3135;42.602;23.468;2022-09-09T01:29:22;8.40;;;4.28;;
6203;SDS011;3135;42.602;23.468;2022-09-09T01:34:26;9.00;;;4.90;;
6203;SDS011;3135;42.602;23.468;2022-09-09T01:39:31;6.13;;;4.93;;
6203;SDS011;3135;42.602;23.468;2022-09-09T01:41:58;7.65;;;4.80;;
6203;SDS011;3135;42.602;23.468;2022-09-09T01:44:24;5.95;;;4.93;;
6203;SDS011;3135;42.602;23.468;2022-09-09T01:46:52;6.32;;;4.80;;
6203;SDS011;3135;42.602;23.468;2022-09-09T01:49:17;5.80;;;4.70;;
6203;SDS011;3135;42.602;23.468;2022-09-09T01:51:43;6.90;;;4.87;;
6203;SDS011;3135;42.602;23.468;2022-09-09T01:54:11;5.47;;;4.97;;
6203;SDS011;3135;42.602;23.468;2022-09-09T01:56:47;6.95;;;4.70;;
6203;SDS011;3135;42.602;23.468;2022-09-09T01:59:17;6.03;;;5.20;;
6203;SDS011;3135;42.602;23.468;2022-09-09T02:04:49;8.27;;;5.60;;
6203;SDS011;3135;42.602;23.468;2022-09-09T02:07:24;6.40;;;5.65;;
6203;SDS011;3135;42.602;23.468;2022-09-09T02:10:09;7.40;;;5.68;;
6203;SDS011;3135;42.602;23.468;2022-09-09T02:12:45;6.87;;;5.77;;
6203;SDS011;3135;42.602;23.468;2022-09-09T02:18:09;6.07;;;5.40;;
6203;SDS011;3135;42.602;23.468;2022-09-09T02:20:38;9.13;;;5.53;;
6203;SDS011;3135;42.602;23.468;2022-09-09T02:23:04;6.03;;;5.35;;
6203;SDS011;3135;42.602;23.468;2022-09-09T02:25:32;7.43;;;5.73;;
6203;SDS011;3135;42.602;23.468;2022-09-09T02:28:00;8.40;;;5.72;;
6203;SDS011;3135;42.602;23.468;2022-09-09T02:30:29;6.80;;;5.30;;
6203;SDS011;3135;42.602;23.468;2022-09-09T02:32:57;7.90;;;6.07;;
6203;SDS011;3135;42.602;23.468;2022-09-09T02:35:26;8.35;;;5.85;;
6203;SDS011;3135;42.602;23.468;2022-09-09T02:37:56;5.93;;;5.30;;
6203;SDS011;3135;42.602;23.468;2022-09-09T02:40:26;7.03;;;5.40;;
6203;SDS011;3135;42.602;23.468;2022-09-09T02:42:53;8.97;;;5.57;;
6203;SDS011;3135;42.602;23.468;2022-09-09T02:45:20;7.60;;;5.25;;
6203;SDS011;3135;42.602;23.468;2022-09-09T02:47:51;6.90;;;5.50;;
6203;SDS011;3135;42.602;23.468;2022-09-09T02:50:43;8.20;;;5.38;;
6203;SDS011;3135;42.602;23.468;2022-09-09T02:53:22;8.32;;;5.25;;
6203;SDS011;3135;42.602;23.468;2022-09-09T02:56:06;7.50;;;4.80;;
6203;SDS011;3135;42.602;23.468;2022-09-09T02:58:38;7.28;;;4.70;;
6203;SDS011;3135;42.602;23.468;2022-09-09T03:01:04;5.10;;;4.60;;
6203;SDS011;3135;42.602;23.468;2022-09-09T03:03:30;5.53;;;5.00;;
6203;SDS011;3135;42.602;23.468;2022-09-09T03:05:56;6.85;;;4.85;;
6203;SDS011;3135;42.602;23.468;2022-09-09T03:08:22;8.00;;;5.38;;
6203;SDS011;3135;42.602;23.468;2022-09-09T03:10:47;6.13;;;5.28;;
6203;SDS011;3135;42.602;23.468;2022-09-09T03:13:13;8.25;;;6.10;;
6203;SDS011;3135;42.602;23.468;2022-09-09T03:15:40;7.45;;;5.90;;
6203;SDS011;3135;42.602;23.468;2022-09-09T03:18:06;5.97;;;5.30;;
6203;SDS011;3135;42.602;23.468;2022-09-09T03:20:32;7.43;;;5.20;;
6203;SDS011;3135;42.602;23.468;2022-09-09T03:22:59;8.52;;;5.30;;
6203;SDS011;3135;42.602;23.468;2022-09-09T03:25:24;6.75;;;5.00;;
6203;SDS011;3135;42.602;23.468;2022-09-09T03:27:51;7.70;;;5.93;;
6203;SDS011;3135;42.602;23.468;2022-09-09T03:30:23;8.73;;;6.13;;
6203;SDS011;3135;42.602;23.468;2022-09-09T03:32:50;8.13;;;5.68;;
6203;SDS011;3135;42.602;23.468;2022-09-09T03:35:15;9.33;;;5.87;;
6203;SDS011;3135;42.602;23.468;2022-09-09T03:37:41;6.07;;;5.38;;
6203;SDS011;3135;42.602;23.468;2022-09-09T03:40:07;6.38;;;5.75;;
6203;SDS011;3135;42.602;23.468;2022-09-09T03:42:35;10.00;;;5.50;;
6203;SDS011;3135;42.602;23.468;2022-09-09T03:45:02;15.77;;;5.93;;
6203;SDS011;3135;42.602;23.468;2022-09-09T03:47:28;8.05;;;5.45;;
6203;SDS011;3135;42.602;23.468;2022-09-09T03:49:54;11.85;;;5.72;;
6203;SDS011;3135;42.602;23.468;2022-09-09T03:52:20;11.97;;;6.17;;
6203;SDS011;3135;42.602;23.468;2022-09-09T03:54:46;17.25;;;5.95;;
6203;SDS011;3135;42.602;23.468;2022-09-09T03:57:12;7.47;;;5.50;;
6203;SDS011;3135;42.602;23.468;2022-09-09T03:59:41;7.28;;;5.43;;
6203;SDS011;3135;42.602;23.468;2022-09-09T04:02:07;7.32;;;5.75;;
6203;SDS011;3135;42.602;23.468;2022-09-09T04:04:32;9.17;;;6.03;;
6203;SDS011;3135;42.602;23.468;2022-09-09T04:06:58;6.83;;;5.70;;
6203;SDS011;3135;42.602;23.468;2022-09-09T04:09:23;9.10;;;5.87;;
6203;SDS011;3135;42.602;23.468;2022-09-09T04:11:49;6.47;;;5.47;;
6203;SDS011;3135;42.602;23.468;2022-09-09T04:14:14;8.93;;;5.83;;
6203;SDS011;3135;42.602;23.468;2022-09-09T04:16:40;8.15;;;5.80;;
6203;SDS011;3135;42.602;23.468;2022-09-09T04:19:10;8.95;;;6.00;;
6203;SDS011;3135;42.602;23.468;2022-09-09T04:21:39;8.85;;;5.88;;
6203;SDS011;3135;42.602;23.468;2022-09-09T04:24:06;9.37;;;6.67;;
6203;SDS011;3135;42.602;23.468;2022-09-09T04:26:35;10.27;;;6.40;;
6203;SDS011;3135;42.602;23.468;2022-09-09T04:29:01;8.07;;;6.15;;
6203;SDS011;3135;42.602;23.468;2022-09-09T04:31:28;7.22;;;5.60;;
6203;SDS011;3135;42.602;23.468;2022-09-09T04:33:54;7.47;;;5.90;;
6203;SDS011;3135;42.602;23.468;2022-09-09T04:36:19;8.33;;;6.37;;
6203;SDS011;3135;42.602;23.468;2022-09-09T04:38:45;9.68;;;6.57;;
6203;SDS011;3135;42.602;23.468;2022-09-09T04:41:11;8.85;;;6.47;;
6203;SDS011;3135;42.602;23.468;2022-09-09T04:43:38;8.10;;;6.10;;
6203;SDS011;3135;42.602;23.468;2022-09-09T04:46:04;12.38;;;6.15;;
6203;SDS011;3135;42.602;23.468;2022-09-09T04:48:30;6.72;;;5.50;;
6203;SDS011;3135;42.602;23.468;2022-09-09T04:50:56;9.40;;;6.38;;
6203;SDS011;3135;42.602;23.468;2022-09-09T04:53:27;10.85;;;6.65;;
6203;SDS011;3135;42.602;23.468;2022-09-09T04:56:02;11.85;;;7.05;;
6203;SDS011;3135;42.602;23.468;2022-09-09T04:58:30;11.43;;;6.43;;
6203;SDS011;3135;42.602;23.468;2022-09-09T05:01:02;10.50;;;6.00;;
6203;SDS011;3135;42.602;23.468;2022-09-09T05:03:35;8.15;;;5.70;;
6203;SDS011;3135;42.602;23.468;2022-09-09T05:06:10;8.05;;;6.07;;
6203;SDS011;3135;42.602;23.468;2022-09-09T05:08:38;8.63;;;5.80;;
6203;SDS011;3135;42.602;23.468;2022-09-09T05:11:12;9.73;;;5.78;;
6203;SDS011;3135;42.602;23.468;2022-09-09T05:13:42;10.02;;;6.63;;
6203;SDS011;3135;42.602;23.468;2022-09-09T05:16:09;6.00;;;4.90;;
6203;SDS011;3135;42.602;23.468;2022-09-09T05:18:36;9.30;;;5.80;;
6203;SDS011;3135;42.602;23.468;2022-09-09T05:21:02;7.68;;;6.07;;
6203;SDS011;3135;42.602;23.468;2022-09-09T05:23:28;9.03;;;6.20;;
6203;SDS011;3135;42.602;23.468;2022-09-09T05:25:57;8.47;;;5.87;;
6203;SDS011;3135;42.602;23.468;2022-09-09T05:28:26;9.38;;;6.20;;
6203;SDS011;3135;42.602;23.468;2022-09-09T05:30:56;9.35;;;4.18;;
6203;SDS011;3135;42.602;23.468;2022-09-09T05:33:26;10.32;;;4.78;;
6203;SDS011;3135;42.602;23.468;2022-09-09T05:35:58;6.55;;;4.40;;
6203;SDS011;3135;42.602;23.468;2022-09-09T05:38:25;9.10;;;4.22;;
6203;SDS011;3135;42.602;23.468;2022-09-09T05:40:51;6.22;;;3.80;;
6203;SDS011;3135;42.602;23.468;2022-09-09T05:43:17;8.40;;;4.05;;
6203;SDS011;3135;42.602;23.468;2022-09-09T05:45:45;8.95;;;6.18;;
6203;SDS011;3135;42.602;23.468;2022-09-09T05:48:12;10.17;;;5.80;;
6203;SDS011;3135;42.602;23.468;2022-09-09T05:50:40;8.63;;;6.80;;
6203;SDS011;3135;42.602;23.468;2022-09-09T05:53:05;9.55;;;6.57;;
6203;SDS011;3135;42.602;23.468;2022-09-09T05:55:31;11.80;;;6.50;;
6203;SDS011;3135;42.602;23.468;2022-09-09T05:57:56;15.73;;;6.83;;
6203;SDS011;3135;42.602;23.468;2022-09-09T06:00:21;11.00;;;6.50;;
6203;SDS011;3135;42.602;23.468;2022-09-09T06:02:51;11.70;;;6.75;;
6203;SDS011;3135;42.602;23.468;2022-09-09T06:05:17;10.63;;;7.10;;
6203;SDS011;3135;42.602;23.468;2022-09-09T06:07:43;10.02;;;6.88;;
6203;SDS011;3135;42.602;23.468;2022-09-09T06:10:09;10.57;;;6.97;;
6203;SDS011;3135;42.602;23.468;2022-09-09T06:12:35;13.50;;;7.07;;
6203;SDS011;3135;42.602;23.468;2022-09-09T06:15:01;12.30;;;6.90;;
6203;SDS011;3135;42.602;23.468;2022-09-09T06:17:26;9.88;;;6.60;;
6203;SDS011;3135;42.602;23.468;2022-09-09T06:19:52;11.00;;;6.47;;
6203;SDS011;3135;42.602;23.468;2022-09-09T06:22:17;12.40;;;6.53;;
6203;SDS011;3135;42.602;23.468;2022-09-09T06:24:43;12.60;;;6.53;;
6203;SDS011;3135;42.602;23.468;2022-09-09T06:27:09;10.60;;;6.82;;
6203;SDS011;3135;42.602;23.468;2022-09-09T06:29:35;7.63;;;6.37;;
6203;SDS011;3135;42.602;23.468;2022-09-09T06:32:01;10.60;;;6.50;;
6203;SDS011;3135;42.602;23.468;2022-09-09T06:34:27;12.50;;;6.40;;
6203;SDS011;3135;42.602;23.468;2022-09-09T06:36:53;7.90;;;5.50;;
6203;SDS011;3135;42.602;23.468;2022-09-09T06:39:19;8.27;;;5.77;;
6203;SDS011;3135;42.602;23.468;2022-09-09T06:41:44;8.70;;;6.00;;
6203;SDS011;3135;42.602;23.468;2022-09-09T06:44:10;11.13;;;5.65;;
6203;SDS011;3135;42.602;23.468;2022-09-09T06:46:38;8.77;;;5.80;;
6203;SDS011;3135;42.602;23.468;2022-09-09T06:49:04;12.70;;;5.78;;
6203;SDS011;3135;42.602;23.468;2022-09-09T06:51:30;9.32;;;5.57;;
6203;SDS011;3135;42.602;23.468;2022-09-09T06:54:00;10.32;;;6.00;;
6203;SDS011;3135;42.602;23.468;2022-09-09T06:56:36;9.67;;;5.50;;
6203;SDS011;3135;42.602;23.468;2022-09-09T06:59:05;11.25;;;5.93;;
6203;SDS011;3135;42.602;23.468;2022-09-09T07:01:35;6.05;;;5.13;;
6203;SDS011;3135;42.602;23.468;2022-09-09T07:04:02;10.00;;;5.40;;
6203;SDS011;3135;42.602;23.468;2022-09-09T07:06:32;10.30;;;5.72;;
6203;SDS011;3135;42.602;23.468;2022-09-09T07:09:04;10.23;;;5.53;;
6203;SDS011;3135;42.602;23.468;2022-09-09T07:11:31;7.85;;;5.38;;
6203;SDS011;3135;42.602;23.468;2022-09-09T07:13:59;8.38;;;5.80;;
6203;SDS011;3135;42.602;23.468;2022-09-09T07:16:26;8.68;;;5.50;;
6203;SDS011;3135;42.602;23.468;2022-09-09T07:18:56;7.10;;;5.32;;
6203;SDS011;3135;42.602;23.468;2022-09-09T07:21:22;7.50;;;5.35;;
6203;SDS011;3135;42.602;23.468;2022-09-09T07:23:49;8.05;;;5.47;;
6203;SDS011;3135;42.602;23.468;2022-09-09T07:26:19;6.47;;;5.20;;
6203;SDS011;3135;42.602;23.468;2022-09-09T07:28:46;8.55;;;5.32;;
6203;SDS011;3135;42.602;23.468;2022-09-09T07:31:16;5.65;;;4.85;;
6203;SDS011;3135;42.602;23.468;2022-09-09T07:33:45;7.38;;;4.80;;
6203;SDS011;3135;42.602;23.468;2022-09-09T07:36:13;7.80;;;5.70;;
6203;SDS011;3135;42.602;23.468;2022-09-09T07:38:44;7.47;;;5.40;;
6203;SDS011;3135;42.602;23.468;2022-09-09T07:41:12;7.95;;;5.10;;
6203;SDS011;3135;42.602;23.468;2022-09-09T07:43:41;6.53;;;5.40;;
6203;SDS011;3135;42.602;23.468;2022-09-09T07:46:08;7.22;;;5.45;;
6203;SDS011;3135;42.602;23.468;2022-09-09T07:48:35;7.30;;;5.05;;
6203;SDS011;3135;42.602;23.468;2022-09-09T07:51:11;6.88;;;5.03;;
6203;SDS011;3135;42.602;23.468;2022-09-09T07:53:42;7.57;;;5.28;;
6203;SDS011;3135;42.602;23.468;2022-09-09T07:56:10;7.32;;;5.32;;
6203;SDS011;3135;42.602;23.468;2022-09-09T07:58:37;6.10;;;4.90;;
6203;SDS011;3135;42.602;23.468;2022-09-09T08:01:22;6.90;;;4.90;;
6203;SDS011;3135;42.602;23.468;2022-09-09T08:03:54;5.38;;;4.72;;
6203;SDS011;3135;42.602;23.468;2022-09-09T08:06:22;5.95;;;4.95;;
6203;SDS011;3135;42.602;23.468;2022-09-09T08:08:50;6.93;;;4.97;;
6203;SDS011;3135;42.602;23.468;2022-09-09T08:11:16;4.97;;;4.47;;
6203;SDS011;3135;42.602;23.468;2022-09-09T08:13:42;6.33;;;4.53;;
6203;SDS011;3135;42.602;23.468;2022-09-09T08:16:10;7.55;;;4.60;;
6203;SDS011;3135;42.602;23.468;2022-09-09T08:18:38;5.35;;;4.80;;
6203;SDS011;3135;42.602;23.468;2022-09-09T08:21:11;6.37;;;4.53;;
6203;SDS011;3135;42.602;23.468;2022-09-09T08:23:41;5.70;;;4.82;;
6203;SDS011;3135;42.602;23.468;2022-09-09T08:26:12;7.63;;;4.97;;
6203;SDS011;3135;42.602;23.468;2022-09-09T08:28:40;5.20;;;4.70;;
6203;SDS011;3135;42.602;23.468;2022-09-09T08:31:10;8.77;;;4.70;;
6203;SDS011;3135;42.602;23.468;2022-09-09T08:33:38;5.63;;;4.63;;
6203;SDS011;3135;42.602;23.468;2022-09-09T08:36:04;6.57;;;4.90;;
6203;SDS011;3135;42.602;23.468;2022-09-09T08:38:31;7.68;;;4.85;;
6203;SDS011;3135;42.602;23.468;2022-09-09T08:41:01;6.75;;;4.40;;
6203;SDS011;3135;42.602;23.468;2022-09-09T08:43:50;8.77;;;4.95;;
6203;SDS011;3135;42.602;23.468;2022-09-09T08:47:16;6.40;;;4.85;;
6203;SDS011;3135;42.602;23.468;2022-09-09T08:52:02;6.43;;;4.80;;
6203;SDS011;3135;42.602;23.468;2022-09-09T08:54:33;8.05;;;4.43;;
6203;SDS011;3135;42.602;23.468;2022-09-09T08:57:01;5.47;;;4.55;;
6203;SDS011;3135;42.602;23.468;2022-09-09T08:59:26;6.15;;;4.47;;
6203;SDS011;3135;42.602;23.468;2022-09-09T09:02:00;5.60;;;4.63;;
6203;SDS011;3135;42.602;23.468;2022-09-09T09:10:24;5.22;;;4.72;;
6203;SDS011;3135;42.602;23.468;2022-09-09T09:12:55;5.43;;;4.80;;
6203;SDS011;3135;42.602;23.468;2022-09-09T09:15:23;5.85;;;4.75;;
6203;SDS011;3135;42.602;23.468;2022-09-09T09:17:50;7.00;;;4.78;;
6203;SDS011;3135;42.602;23.468;2022-09-09T09:20:16;5.33;;;4.67;;
6203;SDS011;3135;42.602;23.468;2022-09-09T09:22:52;5.55;;;4.70;;
6203;SDS011;3135;42.602;23.468;2022-09-09T09:25:23;8.63;;;4.93;;
6203;SDS011;3135;42.602;23.468;2022-09-09T09:31:04;5.72;;;4.68;;
6203;SDS011;3135;42.602;23.468;2022-09-09T09:36:05;6.13;;;4.90;;
6203;SDS011;3135;42.602;23.468;2022-09-09T09:38:33;8.38;;;5.32;;
6203;SDS011;3135;42.602;23.468;2022-09-09T09:40:59;7.25;;;5.07;;
6203;SDS011;3135;42.602;23.468;2022-09-09T09:43:29;9.10;;;5.10;;
6203;SDS011;3135;42.602;23.468;2022-09-09T09:45:56;6.43;;;4.90;;
6203;SDS011;3135;42.602;23.468;2022-09-09T09:48:25;7.17;;;5.07;;
6203;SDS011;3135;42.602;23.468;2022-09-09T09:51:13;6.13;;;5.07;;
6203;SDS011;3135;42.602;23.468;2022-09-09T09:53:41;5.47;;;4.70;;
6203;SDS011;3135;42.602;23.468;2022-09-09T09:56:08;6.07;;;4.78;;
6203;SDS011;3135;42.602;23.468;2022-09-09T10:01:25;6.18;;;5.10;;
6203;SDS011;3135;42.602;23.468;2022-09-09T10:03:59;5.88;;;4.90;;
6203;SDS011;3135;42.602;23.468;2022-09-09T10:06:33;6.43;;;5.00;;
6203;SDS011;3135;42.602;23.468;2022-09-09T10:09:03;5.63;;;4.93;;
6203;SDS011;3135;42.602;23.468;2022-09-09T10:16:49;5.47;;;4.97;;
6203;SDS011;3135;42.602;23.468;2022-09-09T10:19:29;5.53;;;5.03;;
6203;SDS011;3135;42.602;23.468;2022-09-09T10:22:02;9.30;;;4.97;;
6203;SDS011;3135;42.602;23.468;2022-09-09T10:33:32;7.20;;;4.70;;
6203;SDS011;3135;42.602;23.468;2022-09-09T10:36:21;5.30;;;4.80;;
6203;SDS011;3135;42.602;23.468;2022-09-09T10:39:01;8.57;;;5.25;;
6203;SDS011;3135;42.602;23.468;2022-09-09T10:50:10;5.22;;;4.53;;
6203;SDS011;3135;42.602;23.468;2022-09-09T10:53:02;7.20;;;4.65;;
6203;SDS011;3135;42.602;23.468;2022-09-09T10:55:41;6.00;;;4.80;;
6203;SDS011;3135;42.602;23.468;2022-09-09T10:58:10;6.47;;;5.10;;
6203;SDS011;3135;42.602;23.468;2022-09-09T11:00:50;6.85;;;4.90;;
6203;SDS011;3135;42.602;23.468;2022-09-09T11:03:23;6.13;;;5.10;;
6203;SDS011;3135;42.602;23.468;2022-09-09T11:05:53;6.65;;;4.80;;
6203;SDS011;3135;42.602;23.468;2022-09-09T11:08:24;7.53;;;4.80;;
6203;SDS011;3135;42.602;23.468;2022-09-09T11:10:58;5.87;;;4.73;;
6203;SDS011;3135;42.602;23.468;2022-09-09T11:16:34;6.07;;;4.68;;
6203;SDS011;3135;42.602;23.468;2022-09-09T11:22:04;7.75;;;4.72;;
6203;SDS011;3135;42.602;23.468;2022-09-09T11:24:59;8.40;;;4.75;;
6203;SDS011;3135;42.602;23.468;2022-09-09T11:41:22;7.78;;;5.07;;
6203;SDS011;3135;42.602;23.468;2022-09-09T11:43:51;10.30;;;4.80;;
6203;SDS011;3135;42.602;23.468;2022-09-09T11:46:22;6.45;;;4.90;;
6203;SDS011;3135;42.602;23.468;2022-09-09T11:48:59;7.32;;;5.03;;
6203;SDS011;3135;42.602;23.468;2022-09-09T11:51:27;6.97;;;5.00;;
6203;SDS011;3135;42.602;23.468;2022-09-09T11:53:57;6.43;;;4.90;;
6203;SDS011;3135;42.602;23.468;2022-09-09T11:59:05;9.63;;;4.95;;
6203;SDS011;3135;42.602;23.468;2022-09-09T12:01:43;8.45;;;5.10;;
6203;SDS011;3135;42.602;23.468;2022-09-09T12:07:02;9.27;;;5.28;;
6203;SDS011;3135;42.602;23.468;2022-09-09T12:14:38;6.97;;;5.17;;
6203;SDS011;3135;42.602;23.468;2022-09-09T12:17:30;6.03;;;5.37;;
6203;SDS011;3135;42.602;23.468;2022-09-09T12:22:45;8.40;;;5.60;;
6203;SDS011;3135;42.602;23.468;2022-09-09T12:28:18;6.07;;;4.95;;
6203;SDS011;3135;42.602;23.468;2022-09-09T12:33:37;8.88;;;5.30;;
6203;SDS011;3135;42.602;23.468;2022-09-09T12:36:10;5.50;;;4.95;;
6203;SDS011;3135;42.602;23.468;2022-09-09T12:38:40;7.38;;;5.00;;
6203;SDS011;3135;42.602;23.468;2022-09-09T12:41:28;5.55;;;5.05;;
6203;SDS011;3135;42.602;23.468;2022-09-09T12:44:03;6.53;;;5.00;;
6203;SDS011;3135;42.602;23.468;2022-09-09T12:46:44;7.57;;;5.03;;
6203;SDS011;3135;42.602;23.468;2022-09-09T12:52:06;9.17;;;5.30;;
6203;SDS011;3135;42.602;23.468;2022-09-09T12:54:35;8.35;;;5.15;;
6203;SDS011;3135;42.602;23.468;2022-09-09T12:57:03;6.90;;;5.03;;
6203;SDS011;3135;42.602;23.468;2022-09-09T12:59:36;7.13;;;4.93;;
6203;SDS011;3135;42.602;23.468;2022-09-09T13:02:25;5.82;;;5.22;;
6203;SDS011;3135;42.602;23.468;2022-09-09T13:04:51;10.13;;;5.30;;
6203;SDS011;3135;42.602;23.468;2022-09-09T13:07:18;6.63;;;4.90;;
6203;SDS011;3135;42.602;23.468;2022-09-09T13:09:44;6.80;;;4.90;;
6203;SDS011;3135;42.602;23.468;2022-09-09T13:12:13;6.45;;;4.93;;
6203;SDS011;3135;42.602;23.468;2022-09-09T13:14:42;9.03;;;5.80;;
6203;SDS011;3135;42.602;23.468;2022-09-09T13:17:15;10.13;;;5.43;;
6203;SDS011;3135;42.602;23.468;2022-09-09T13:19:44;9.50;;;5.30;;
6203;SDS011;3135;42.602;23.468;2022-09-09T13:22:14;7.27;;;5.20;;
6203;SDS011;3135;42.602;23.468;2022-09-09T13:25:06;7.68;;;5.32;;
6203;SDS011;3135;42.602;23.468;2022-09-09T13:27:36;9.98;;;5.28;;
6203;SDS011;3135;42.602;23.468;2022-09-09T13:30:23;9.63;;;5.20;;
6203;SDS011;3135;42.602;23.468;2022-09-09T13:33:00;7.40;;;5.57;;
6203;SDS011;3135;42.602;23.468;2022-09-09T13:35:32;9.98;;;5.75;;
6203;SDS011;3135;42.602;23.468;2022-09-09T13:37:58;9.68;;;5.45;;
6203;SDS011;3135;42.602;23.468;2022-09-09T13:40:32;7.35;;;5.32;;
6203;SDS011;3135;42.602;23.468;2022-09-09T13:42:59;8.20;;;5.28;;
6203;SDS011;3135;42.602;23.468;2022-09-09T13:45:25;9.57;;;5.80;;
6203;SDS011;3135;42.602;23.468;2022-09-09T13:47:52;8.13;;;5.90;;
6203;SDS011;3135;42.602;23.468;2022-09-09T13:50:27;9.67;;;6.40;;
6203;SDS011;3135;42.602;23.468;2022-09-09T13:52:54;11.15;;;6.03;;
6203;SDS011;3135;42.602;23.468;2022-09-09T13:55:23;8.93;;;5.72;;
6203;SDS011;3135;42.602;23.468;2022-09-09T13:57:55;7.05;;;5.00;;
6203;SDS011;3135;42.602;23.468;2022-09-09T14:00:21;7.83;;;5.10;;
6203;SDS011;3135;42.602;23.468;2022-09-09T14:02:49;7.47;;;4.55;;
6203;SDS011;3135;42.602;23.468;2022-09-09T14:05:15;6.90;;;4.55;;
6203;SDS011;3135;42.602;23.468;2022-09-09T14:07:41;6.22;;;4.30;;
6203;SDS011;3135;42.602;23.468;2022-09-09T14:10:07;5.00;;;4.50;;
6203;SDS011;3135;42.602;23.468;2022-09-09T14:12:33;7.45;;;4.40;;
6203;SDS011;3135;42.602;23.468;2022-09-09T14:14:58;6.33;;;4.40;;
6203;SDS011;3135;42.602;23.468;2022-09-09T14:17:27;6.97;;;4.47;;
6203;SDS011;3135;42.602;23.468;2022-09-09T14:19:54;9.48;;;4.70;;
6203;SDS011;3135;42.602;23.468;2022-09-09T14:22:21;7.15;;;4.40;;
6203;SDS011;3135;42.602;23.468;2022-09-09T14:24:47;6.25;;;4.50;;
6203;SDS011;3135;42.602;23.468;2022-09-09T14:27:12;4.43;;;4.03;;
6203;SDS011;3135;42.602;23.468;2022-09-09T14:29:38;5.63;;;4.50;;
6203;SDS011;3135;42.602;23.468;2022-09-09T14:32:03;10.47;;;4.47;;
6203;SDS011;3135;42.602;23.468;2022-09-09T14:34:29;5.88;;;4.30;;
6203;SDS011;3135;42.602;23.468;2022-09-09T14:36:57;6.03;;;3.97;;
6203;SDS011;3135;42.602;23.468;2022-09-09T14:39:23;8.10;;;4.10;;
6203;SDS011;3135;42.602;23.468;2022-09-09T14:41:48;8.60;;;4.47;;
6203;SDS011;3135;42.602;23.468;2022-09-09T14:44:13;9.00;;;3.92;;
6203;SDS011;3135;42.602;23.468;2022-09-09T14:46:40;6.40;;;3.90;;
6203;SDS011;3135;42.602;23.468;2022-09-09T14:49:08;8.02;;;4.20;;
6203;SDS011;3135;42.602;23.468;2022-09-09T14:51:35;8.57;;;3.90;;
6203;SDS011;3135;42.602;23.468;2022-09-09T14:54:01;5.35;;;3.63;;
6203;SDS011;3135;42.602;23.468;2022-09-09T14:56:28;6.53;;;3.50;;
6203;SDS011;3135;42.602;23.468;2022-09-09T14:58:55;7.80;;;4.13;;
6203;SDS011;3135;42.602;23.468;2022-09-09T15:01:22;6.05;;;3.85;;
6203;SDS011;3135;42.602;23.468;2022-09-09T15:03:51;7.57;;;3.80;;
6203;SDS011;3135;42.602;23.468;2022-09-09T15:06:19;7.95;;;3.83;;
6203;SDS011;3135;42.602;23.468;2022-09-09T15:08:45;6.72;;;3.90;;
6203;SDS011;3135;42.602;23.468;2022-09-09T15:11:12;8.45;;;3.75;;
6203;SDS011;3135;42.602;23.468;2022-09-09T15:13:39;7.68;;;3.88;;
6203;SDS011;3135;42.602;23.468;2022-09-09T15:16:16;7.93;;;4.05;;
6203;SDS011;3135;42.602;23.468;2022-09-09T15:18:43;6.43;;;4.00;;
6203;SDS011;3135;42.602;23.468;2022-09-09T15:21:14;8.00;;;4.20;;
6203;SDS011;3135;42.602;23.468;2022-09-09T15:23:41;6.65;;;3.63;;
6203;SDS011;3135;42.602;23.468;2022-09-09T15:26:07;5.87;;;3.40;;
6203;SDS011;3135;42.602;23.468;2022-09-09T15:28:34;6.75;;;3.88;;
6203;SDS011;3135;42.602;23.468;2022-09-09T16:36:24;7.78;;;4.35;;
6203;SDS011;3135;42.602;23.468;2022-09-09T16:38:52;9.85;;;4.80;;
6203;SDS011;3135;42.602;23.468;2022-09-09T16:41:22;8.80;;;5.10;;
6203;SDS011;3135;42.602;23.468;2022-09-09T16:43:51;7.55;;;4.80;;
6203;SDS011;3135;42.602;23.468;2022-09-09T16:46:24;9.17;;;4.83;;
6203;SDS011;3135;42.602;23.468;2022-09-09T16:48:52;9.95;;;5.13;;
6203;SDS011;3135;42.602;23.468;2022-09-09T16:51:23;5.63;;;4.70;;
6203;SDS011;3135;42.602;23.468;2022-09-09T16:53:51;8.85;;;5.38;;
6203;SDS011;3135;42.602;23.468;2022-09-09T16:56:18;9.37;;;5.10;;
6203;SDS011;3135;42.602;23.468;2022-09-09T16:58:50;12.23;;;5.28;;
6203;SDS011;3135;42.602;23.468;2022-09-09T17:01:16;12.13;;;5.28;;
6203;SDS011;3135;42.602;23.468;2022-09-09T17:03:42;9.55;;;5.00;;
6203;SDS011;3135;42.602;23.468;2022-09-09T17:06:11;7.93;;;4.97;;
6203;SDS011;3135;42.602;23.468;2022-09-09T17:08:38;7.95;;;5.25;;
6203;SDS011;3135;42.602;23.468;2022-09-09T17:11:10;8.97;;;5.40;;
6203;SDS011;3135;42.602;23.468;2022-09-09T17:13:40;8.43;;;4.75;;
6203;SDS011;3135;42.602;23.468;2022-09-09T17:16:13;7.25;;;4.85;;
6203;SDS011;3135;42.602;23.468;2022-09-09T17:18:39;8.25;;;5.10;;
6203;SDS011;3135;42.602;23.468;2022-09-09T17:21:06;8.43;;;4.93;;
6203;SDS011;3135;42.602;23.468;2022-09-09T17:23:34;9.25;;;5.03;;
6203;SDS011;3135;42.602;23.468;2022-09-09T17:26:03;8.82;;;5.30;;
6203;SDS011;3135;42.602;23.468;2022-09-09T17:28:30;10.13;;;5.50;;
6203;SDS011;3135;42.602;23.468;2022-09-09T17:31:00;10.40;;;4.77;;
6203;SDS011;3135;42.602;23.468;2022-09-09T17:33:28;7.45;;;5.07;;
6203;SDS011;3135;42.602;23.468;2022-09-09T17:36:00;15.35;;;5.32;;
6203;SDS011;3135;42.602;23.468;2022-09-09T17:38:27;11.57;;;5.45;;
6203;SDS011;3135;42.602;23.468;2022-09-09T17:43:29;6.40;;;4.72;;
6203;SDS011;3135;42.602;23.468;2022-09-09T17:45:54;7.60;;;4.60;;
6203;SDS011;3135;42.602;23.468;2022-09-09T17:48:20;10.17;;;5.10;;
6203;SDS011;3135;42.602;23.468;2022-09-09T17:50:45;8.33;;;4.73;;
6203;SDS011;3135;42.602;23.468;2022-09-09T17:53:11;30.15;;;12.27;;
6203;SDS011;3135;42.602;23.468;2022-09-09T17:55:37;46.53;;;17.53;;
6203;SDS011;3135;42.602;23.468;2022-09-09T17:58:02;29.45;;;12.88;;
6203;SDS011;3135;42.602;23.468;2022-09-09T18:00:27;21.43;;;9.63;;
6203;SDS011;3135;42.602;23.468;2022-09-09T18:02:55;23.23;;;11.32;;
6203;SDS011;3135;42.602;23.468;2022-09-09T18:05:20;11.83;;;6.27;;
6203;SDS011;3135;42.602;23.468;2022-09-09T18:07:45;8.63;;;5.00;;
6203;SDS011;3135;42.602;23.468;2022-09-09T18:10:11;7.05;;;5.25;;
6203;SDS011;3135;42.602;23.468;2022-09-09T18:12:37;9.07;;;5.40;;
6203;SDS011;3135;42.602;23.468;2022-09-09T18:15:02;6.70;;;5.27;;
6203;SDS011;3135;42.602;23.468;2022-09-09T18:17:29;7.15;;;5.28;;
6203;SDS011;3135;42.602;23.468;2022-09-09T18:19:55;6.72;;;4.78;;
6203;SDS011;3135;42.602;23.468;2022-09-09T18:22:21;7.22;;;5.10;;
6203;SDS011;3135;42.602;23.468;2022-09-09T18:24:47;8.48;;;5.28;;